createdAt,value
2022-08-17T00:00:51.816Z,20.10
2022-08-17T00:01:52.277Z,20.12
2022-08-17T00:02:47.169Z,20.10
2022-08-17T00:03:47.180Z,20.10
2022-08-17T00:04:50.541Z,20.09
2022-08-17T00:05:47.211Z,20.10
2022-08-17T00:06:49.221Z,20.09
2022-08-17T00:07:47.134Z,20.09
2022-08-17T00:08:47.127Z,20.08
2022-08-17T00:09:47.106Z,20.08
2022-08-17T00:10:47.183Z,20.08
2022-08-17T00:12:40.985Z,20.08
2022-08-17T00:12:49.045Z,20.09
2022-08-17T00:13:47.042Z,20.09
2022-08-17T00:14:47.048Z,20.08
2022-08-17T00:15:47.096Z,20.08
2022-08-17T00:16:56.649Z,20.08
2022-08-17T00:17:47.130Z,20.09
2022-08-17T00:19:05.790Z,20.09
2022-08-17T00:19:47.041Z,20.12
2022-08-17T00:20:47.416Z,20.09
2022-08-17T00:22:32.590Z,20.10
2022-08-17T00:22:47.277Z,20.12
2022-08-17T00:23:49.326Z,20.13
2022-08-17T00:24:46.939Z,20.12
2022-08-17T00:25:47.385Z,20.13
2022-08-17T00:26:47.059Z,20.13
2022-08-17T00:27:47.059Z,20.15
2022-08-17T00:28:46.953Z,20.18
2022-08-17T00:29:46.962Z,20.18
2022-08-17T00:30:52.732Z,20.18
2022-08-17T00:31:47.130Z,20.20
2022-08-17T00:33:12.286Z,20.20
2022-08-17T00:33:46.995Z,20.20
2022-08-17T00:34:46.838Z,20.20
2022-08-17T00:35:46.892Z,20.21
2022-08-17T00:36:47.034Z,20.21
2022-08-17T00:37:47.048Z,20.20
2022-08-17T00:38:46.819Z,20.21
2022-08-17T00:39:46.935Z,20.18
2022-08-17T00:40:46.820Z,20.18
2022-08-17T00:41:47.011Z,20.16
2022-08-17T00:42:46.967Z,20.16
2022-08-17T00:43:46.977Z,20.15
2022-08-17T00:44:46.770Z,20.16
2022-08-17T00:45:47.090Z,20.16
2022-08-17T00:46:46.860Z,20.15
2022-08-17T00:47:46.789Z,20.15
2022-08-17T00:48:46.821Z,20.13
2022-08-17T00:49:46.694Z,20.12
2022-08-17T00:50:46.831Z,20.13
2022-08-17T00:51:46.895Z,20.12
2022-08-17T00:52:46.895Z,20.12
2022-08-17T00:53:46.889Z,20.10
2022-08-17T00:54:47.440Z,20.10
2022-08-17T00:55:46.738Z,20.09
2022-08-17T00:56:46.751Z,20.08
2022-08-17T00:57:46.603Z,20.05
2022-08-17T00:58:46.927Z,20.05
2022-08-17T00:59:46.665Z,20.06
2022-08-17T01:00:47.181Z,20.05
2022-08-17T01:01:46.782Z,20.06
2022-08-17T01:02:46.595Z,20.05
2022-08-17T01:03:46.644Z,20.05
2022-08-17T01:04:46.583Z,20.03
2022-08-17T01:05:46.659Z,20.02
2022-08-17T01:06:46.660Z,20.00
2022-08-17T01:07:46.547Z,19.97
2022-08-17T01:08:46.550Z,19.98
2022-08-17T01:09:46.536Z,19.95
2022-08-17T01:10:58.691Z,19.94
2022-08-17T01:11:46.531Z,19.93
2022-08-17T01:12:46.597Z,19.93
2022-08-17T01:13:46.680Z,19.91
2022-08-17T01:14:46.506Z,19.93
2022-08-17T01:15:46.621Z,19.90
2022-08-17T01:16:46.614Z,19.90
2022-08-17T01:17:46.646Z,19.90
2022-08-17T01:18:46.585Z,19.88
2022-08-17T01:19:46.594Z,19.88
2022-08-17T01:20:48.642Z,19.90
2022-08-17T01:21:46.401Z,19.87
2022-08-17T01:22:46.500Z,19.87
2022-08-17T01:23:46.444Z,19.86
2022-08-17T01:24:46.364Z,19.84
2022-08-17T01:25:46.504Z,19.84
2022-08-17T01:26:46.343Z,19.86
2022-08-17T01:27:46.310Z,19.86
2022-08-17T01:28:53.778Z,19.86
2022-08-17T01:29:46.607Z,19.86
2022-08-17T01:30:56.840Z,19.86
2022-08-17T01:31:46.332Z,19.86
2022-08-17T01:32:46.417Z,19.86
2022-08-17T01:33:46.272Z,19.87
2022-08-17T01:34:50.291Z,19.86
2022-08-17T01:35:46.295Z,19.86
2022-08-17T01:36:46.249Z,19.86
2022-08-17T01:37:46.347Z,19.87
2022-08-17T01:38:46.335Z,19.86
2022-08-17T01:39:46.401Z,19.86
2022-08-17T01:40:46.206Z,19.86
2022-08-17T01:41:46.364Z,19.86
2022-08-17T01:42:46.407Z,19.86
2022-08-17T01:43:46.158Z,19.84
2022-08-17T01:44:46.334Z,19.84
2022-08-17T01:45:46.183Z,19.80
2022-08-17T01:46:46.153Z,19.80
2022-08-17T01:47:46.163Z,19.79
2022-08-17T01:48:46.195Z,19.79
2022-08-17T01:49:46.093Z,19.76
2022-08-17T01:50:46.172Z,19.73
2022-08-17T01:51:46.208Z,19.72
2022-08-17T01:52:46.560Z,19.70
2022-08-17T01:53:46.088Z,19.68
2022-08-17T01:54:46.250Z,19.65
2022-08-17T01:55:46.184Z,19.61
2022-08-17T01:56:47.299Z,19.60
2022-08-17T01:57:46.006Z,19.55
2022-08-17T01:58:46.023Z,19.53
2022-08-17T01:59:46.443Z,19.50
2022-08-17T02:00:59.588Z,19.47
2022-08-17T02:01:46.310Z,19.43
2022-08-17T02:02:46.131Z,19.43
2022-08-17T02:03:56.215Z,19.39
2022-08-17T02:04:45.980Z,19.39
2022-08-17T02:05:45.975Z,19.38
2022-08-17T02:06:53.598Z,19.36
2022-08-17T02:08:00.579Z,19.35
2022-08-17T02:08:57.039Z,19.35
2022-08-17T02:09:45.910Z,19.35
2022-08-17T02:10:46.852Z,19.33
2022-08-17T02:11:46.259Z,19.33
2022-08-17T02:12:45.856Z,19.32
2022-08-17T02:13:45.839Z,19.32
2022-08-17T02:14:45.831Z,19.31
2022-08-17T02:15:46.043Z,19.29
2022-08-17T02:16:45.937Z,19.28
2022-08-17T02:17:45.855Z,19.25
2022-08-17T02:18:45.807Z,19.25
2022-08-17T02:19:45.823Z,19.25
2022-08-17T02:20:45.791Z,19.25
2022-08-17T02:21:45.770Z,19.24
2022-08-17T02:22:46.002Z,19.24
2022-08-17T02:23:45.837Z,19.24
2022-08-17T02:24:58.485Z,19.23
2022-08-17T02:25:45.751Z,19.23
2022-08-17T02:26:45.849Z,19.21
2022-08-17T02:27:45.750Z,19.20
2022-08-17T02:28:45.766Z,19.20
2022-08-17T02:29:45.759Z,19.20
2022-08-17T02:30:59.553Z,19.15
2022-08-17T02:31:45.679Z,19.17
2022-08-17T02:32:45.730Z,19.17
2022-08-17T02:33:45.685Z,19.17
2022-08-17T02:34:45.677Z,19.18
2022-08-17T02:35:45.678Z,19.18
2022-08-17T02:36:45.638Z,19.20
2022-08-17T02:37:45.644Z,19.21
2022-08-17T02:38:45.794Z,19.21
2022-08-17T02:39:45.675Z,19.23
2022-08-17T02:40:45.681Z,19.21
2022-08-17T02:41:45.642Z,19.23
2022-08-17T02:42:45.794Z,19.23
2022-08-17T02:43:45.562Z,19.21
2022-08-17T02:44:45.589Z,19.21
2022-08-17T02:45:45.554Z,19.20
2022-08-17T02:46:45.691Z,19.21
2022-08-17T02:47:45.599Z,19.20
2022-08-17T02:48:45.559Z,19.18
2022-08-17T02:49:49.300Z,19.17
2022-08-17T02:50:45.558Z,19.17
2022-08-17T02:51:45.631Z,19.14
2022-08-17T02:52:45.650Z,19.14
2022-08-17T02:53:45.554Z,19.11
2022-08-17T02:54:45.482Z,19.08
2022-08-17T02:55:45.487Z,19.06
2022-08-17T02:56:45.433Z,19.02
2022-08-17T02:57:45.649Z,19.01
2022-08-17T02:58:45.482Z,18.98
2022-08-17T02:59:48.942Z,18.95
2022-08-17T03:00:45.397Z,18.92
2022-08-17T03:01:45.476Z,18.91
2022-08-17T03:02:45.638Z,18.86
2022-08-17T03:03:45.400Z,18.83
2022-08-17T03:04:45.439Z,18.82
2022-08-17T03:05:45.639Z,18.80
2022-08-17T03:06:45.594Z,18.79
2022-08-17T03:07:45.359Z,18.76
2022-08-17T03:08:45.323Z,18.76
2022-08-17T03:09:45.324Z,18.74
2022-08-17T03:10:45.326Z,18.73
2022-08-17T03:11:45.368Z,18.68
2022-08-17T03:12:45.438Z,18.67
2022-08-17T03:13:45.277Z,18.64
2022-08-17T03:14:45.234Z,18.62
2022-08-17T03:15:45.350Z,18.59
2022-08-17T03:16:45.240Z,18.57
2022-08-17T03:17:45.484Z,18.55
2022-08-17T03:18:45.247Z,18.52
2022-08-17T03:19:45.216Z,18.52
2022-08-17T03:20:45.214Z,18.50
2022-08-17T03:21:45.205Z,18.49
2022-08-17T03:22:49.429Z,18.47
2022-08-17T03:23:45.277Z,18.47
2022-08-17T03:24:45.350Z,18.46
2022-08-17T03:25:45.199Z,18.46
2022-08-17T03:26:45.197Z,18.46
2022-08-17T03:27:45.158Z,18.46
2022-08-17T03:28:45.128Z,18.46
2022-08-17T03:29:45.159Z,18.43
2022-08-17T03:30:45.117Z,18.44
2022-08-17T03:31:45.309Z,18.44
2022-08-17T03:32:45.245Z,18.44
2022-08-17T03:33:45.202Z,18.43
2022-08-17T03:34:45.041Z,18.44
2022-08-17T03:35:45.117Z,18.43
2022-08-17T03:36:45.041Z,18.43
2022-08-17T03:37:45.039Z,18.43
2022-08-17T03:38:45.157Z,18.43
2022-08-17T03:39:45.017Z,18.43
2022-08-17T03:40:57.602Z,18.42
2022-08-17T03:41:45.040Z,18.42
2022-08-17T03:42:44.998Z,18.40
2022-08-17T03:43:45.000Z,18.40
2022-08-17T03:44:44.966Z,18.40
2022-08-17T03:45:44.958Z,18.39
2022-08-17T03:46:44.959Z,18.37
2022-08-17T03:47:44.925Z,18.37
2022-08-17T03:48:44.958Z,18.34
2022-08-17T03:49:44.925Z,18.34
2022-08-17T03:50:44.914Z,18.31
2022-08-17T03:51:45.014Z,18.31
2022-08-17T03:52:44.921Z,18.28
2022-08-17T03:53:44.922Z,18.28
2022-08-17T03:54:44.918Z,18.28
2022-08-17T03:55:44.843Z,18.25
2022-08-17T03:56:44.839Z,18.25
2022-08-17T03:57:45.045Z,18.25
2022-08-17T03:58:45.077Z,18.24
2022-08-17T03:59:45.354Z,18.22
2022-08-17T04:00:44.838Z,18.21
2022-08-17T04:01:44.892Z,18.21
2022-08-17T04:02:44.806Z,18.21
2022-08-17T04:03:44.722Z,18.19
2022-08-17T04:04:44.958Z,18.19
2022-08-17T04:05:44.798Z,18.18
2022-08-17T04:06:44.729Z,18.17
2022-08-17T04:07:44.799Z,18.17
2022-08-17T04:08:44.763Z,18.17
2022-08-17T04:09:44.773Z,18.15
2022-08-17T04:10:45.147Z,18.13
2022-08-17T04:11:44.676Z,18.10
2022-08-17T04:12:44.685Z,18.13
2022-08-17T04:13:45.128Z,18.12
2022-08-17T04:14:52.776Z,18.12
2022-08-17T04:15:44.636Z,18.10
2022-08-17T04:16:44.683Z,18.12
2022-08-17T04:17:44.688Z,18.10
2022-08-17T04:18:44.593Z,18.09
2022-08-17T04:19:44.593Z,18.07
2022-08-17T04:20:44.575Z,18.07
2022-08-17T04:21:44.657Z,18.07
2022-08-17T04:22:44.812Z,18.07
2022-08-17T04:23:44.721Z,18.07
2022-08-17T04:24:44.525Z,18.06
2022-08-17T04:25:44.593Z,18.06
2022-08-17T04:26:53.002Z,18.06
2022-08-17T04:27:44.496Z,18.06
2022-08-17T04:28:44.901Z,18.04
2022-08-17T04:29:44.775Z,18.04
2022-08-17T04:30:44.586Z,18.04
2022-08-17T04:31:44.546Z,18.03
2022-08-17T04:33:00.681Z,18.03
2022-08-17T04:33:44.460Z,18.00
2022-08-17T04:34:44.517Z,18.02
2022-08-17T04:35:44.481Z,18.03
2022-08-17T04:36:50.244Z,18.02
2022-08-17T04:37:44.551Z,18.02
2022-08-17T04:38:44.405Z,18.03
2022-08-17T04:39:44.710Z,18.03
2022-08-17T04:40:44.382Z,18.06
2022-08-17T04:41:44.525Z,18.04
2022-08-17T04:42:44.556Z,18.03
2022-08-17T04:43:44.522Z,18.04
2022-08-17T04:44:44.403Z,18.06
2022-08-17T04:45:55.111Z,18.06
2022-08-17T04:46:44.396Z,18.04
2022-08-17T04:47:44.337Z,18.07
2022-08-17T04:48:44.564Z,18.09
2022-08-17T04:49:44.466Z,18.09
2022-08-17T04:50:44.326Z,18.10
2022-08-17T04:51:47.899Z,18.12
2022-08-17T04:52:44.463Z,18.12
2022-08-17T04:53:44.467Z,18.15
2022-08-17T04:54:44.672Z,18.17
2022-08-17T04:55:44.569Z,18.17
2022-08-17T04:56:44.341Z,18.18
2022-08-17T04:57:45.232Z,18.21
2022-08-17T04:58:44.330Z,18.22
2022-08-17T04:59:44.256Z,18.24
2022-08-17T05:00:44.321Z,18.25
2022-08-17T05:01:44.226Z,18.27
2022-08-17T05:02:50.273Z,18.28
2022-08-17T05:03:44.372Z,18.29
2022-08-17T05:04:44.142Z,18.33
2022-08-17T05:05:44.198Z,18.34
2022-08-17T05:06:44.112Z,18.37
2022-08-17T05:07:44.169Z,18.37
2022-08-17T05:08:44.080Z,18.40
2022-08-17T05:09:44.060Z,18.42
2022-08-17T05:10:45.404Z,18.46
2022-08-17T05:11:44.919Z,18.47
2022-08-17T05:12:44.058Z,18.50
2022-08-17T05:13:44.139Z,18.52
2022-08-17T05:14:44.115Z,18.55
2022-08-17T05:15:45.155Z,18.58
2022-08-17T05:16:44.152Z,18.61
2022-08-17T05:17:44.073Z,18.62
2022-08-17T05:18:44.149Z,18.67
2022-08-17T05:19:45.728Z,18.68
2022-08-17T05:20:43.958Z,18.73
2022-08-17T05:21:43.958Z,18.74
2022-08-17T05:22:43.958Z,18.77
2022-08-17T05:23:43.950Z,18.79
2022-08-17T05:24:53.605Z,18.83
2022-08-17T05:25:45.681Z,18.84
2022-08-17T05:26:44.074Z,18.90
2022-08-17T05:27:43.879Z,18.91
2022-08-17T05:28:44.067Z,18.94
2022-08-17T05:29:43.855Z,18.99
2022-08-17T05:30:43.881Z,19.01
2022-08-17T05:31:43.853Z,19.05
2022-08-17T05:32:43.845Z,19.08
2022-08-17T05:33:46.168Z,19.11
2022-08-17T05:34:43.852Z,19.14
2022-08-17T05:35:44.020Z,19.17
2022-08-17T05:36:44.602Z,19.21
2022-08-17T05:37:43.924Z,19.29
2022-08-17T05:38:43.807Z,19.31
2022-08-17T05:39:43.816Z,19.36
2022-08-17T05:40:43.766Z,19.39
2022-08-17T05:41:43.848Z,19.42
2022-08-17T05:42:43.919Z,19.46
2022-08-17T05:43:43.814Z,19.48
2022-08-17T05:44:43.676Z,19.51
2022-08-17T05:45:55.400Z,19.54
2022-08-17T05:46:43.681Z,19.60
2022-08-17T05:47:43.814Z,19.61
2022-08-17T05:48:43.775Z,19.63
2022-08-17T05:49:43.657Z,19.65
2022-08-17T05:50:43.762Z,19.68
2022-08-17T05:51:44.026Z,19.69
2022-08-17T05:52:43.939Z,19.72
2022-08-17T05:53:43.647Z,19.76
2022-08-17T05:54:43.578Z,19.78
2022-08-17T05:55:43.620Z,19.80
2022-08-17T05:56:43.549Z,19.84
2022-08-17T05:57:53.310Z,19.87
2022-08-17T05:58:43.545Z,19.94
2022-08-17T05:59:43.778Z,19.97
2022-08-17T06:00:43.633Z,20.00
2022-08-17T06:01:43.565Z,20.05
2022-08-17T06:02:47.679Z,20.09
2022-08-17T06:03:43.855Z,20.10
2022-08-17T06:04:43.576Z,20.15
2022-08-17T06:05:43.891Z,20.18
2022-08-17T06:06:43.669Z,20.21
2022-08-17T06:07:44.052Z,20.25
2022-08-17T06:08:43.671Z,20.30
2022-08-17T06:09:43.508Z,20.33
2022-08-17T06:10:43.553Z,20.38
2022-08-17T06:11:43.516Z,20.42
2022-08-17T06:12:43.480Z,20.46
2022-08-17T06:13:43.428Z,20.50
2022-08-17T06:14:43.641Z,20.53
2022-08-17T06:15:43.590Z,20.59
2022-08-17T06:16:43.474Z,20.62
2022-08-17T06:17:43.514Z,20.66
2022-08-17T06:18:43.580Z,20.72
2022-08-17T06:19:43.412Z,20.74
2022-08-17T06:20:43.352Z,20.76
2022-08-17T06:21:43.509Z,20.80
2022-08-17T06:22:43.363Z,20.84
2022-08-17T06:23:43.510Z,20.89
2022-08-17T06:24:43.424Z,20.93
2022-08-17T06:25:43.508Z,20.99
2022-08-17T06:26:43.602Z,21.02
2022-08-17T06:27:43.406Z,21.04
2022-08-17T06:28:43.286Z,21.06
2022-08-17T06:29:43.311Z,21.11
2022-08-17T06:30:59.958Z,21.13
2022-08-17T06:31:43.321Z,21.19
2022-08-17T06:32:43.560Z,21.21
2022-08-17T06:33:43.299Z,21.24
2022-08-17T06:34:43.370Z,21.27
2022-08-17T06:35:43.701Z,21.32
2022-08-17T06:36:43.235Z,21.38
2022-08-17T06:37:43.174Z,21.44
2022-08-17T06:38:43.231Z,21.50
2022-08-17T06:39:43.299Z,21.54
2022-08-17T06:40:43.208Z,21.57
2022-08-17T06:41:43.240Z,21.57
2022-08-17T06:43:05.150Z,21.60
2022-08-17T06:43:47.811Z,21.59
2022-08-17T06:44:51.198Z,21.61
2022-08-17T06:45:43.171Z,21.63
2022-08-17T06:46:43.157Z,21.64
2022-08-17T06:47:43.157Z,21.61
2022-08-17T06:48:43.121Z,21.64
2022-08-17T06:49:43.156Z,21.64
2022-08-17T06:50:43.086Z,21.66
2022-08-17T06:51:43.118Z,21.67
2022-08-17T06:52:46.690Z,21.69
2022-08-17T06:53:43.160Z,21.71
2022-08-17T06:54:43.046Z,21.71
2022-08-17T06:55:43.048Z,21.72
2022-08-17T06:56:53.248Z,21.74
2022-08-17T06:57:43.079Z,21.74
2022-08-17T06:58:42.998Z,21.76
2022-08-17T06:59:54.814Z,21.76
2022-08-17T07:00:43.171Z,21.81
2022-08-17T07:01:42.965Z,21.85
2022-08-17T07:02:52.933Z,21.88
2022-08-17T07:03:42.968Z,21.94
2022-08-17T07:04:42.922Z,21.97
2022-08-17T07:05:42.919Z,22.01
2022-08-17T07:06:42.960Z,22.06
2022-08-17T07:07:42.877Z,22.09
2022-08-17T07:08:42.880Z,22.12
2022-08-17T07:09:42.888Z,22.16
2022-08-17T07:10:42.882Z,22.19
2022-08-17T07:11:42.881Z,22.20
2022-08-17T07:12:42.945Z,22.23
2022-08-17T07:13:42.954Z,22.27
2022-08-17T07:14:43.049Z,22.29
2022-08-17T07:15:43.003Z,22.31
2022-08-17T07:16:42.845Z,22.35
2022-08-17T07:17:57.005Z,22.38
2022-08-17T07:18:42.817Z,22.44
2022-08-17T07:19:42.803Z,22.49
2022-08-17T07:20:43.139Z,22.53
2022-08-17T07:21:43.015Z,22.56
2022-08-17T07:22:57.564Z,22.60
2022-08-17T07:23:42.803Z,22.62
2022-08-17T07:24:42.768Z,22.65
2022-08-17T07:25:42.773Z,22.69
2022-08-17T07:26:42.912Z,22.74
2022-08-17T07:27:43.006Z,22.77
2022-08-17T07:28:42.693Z,22.77
2022-08-17T07:29:42.812Z,22.80
2022-08-17T07:30:46.809Z,22.83
2022-08-17T07:31:42.718Z,22.84
2022-08-17T07:32:42.615Z,22.87
2022-08-17T07:33:42.787Z,22.92
2022-08-17T07:34:42.616Z,22.97
2022-08-17T07:35:44.092Z,23.01
2022-08-17T07:36:42.646Z,23.05
2022-08-17T07:37:42.800Z,23.09
2022-08-17T07:38:42.645Z,23.12
2022-08-17T07:40:15.179Z,23.17
2022-08-17T07:40:42.671Z,23.20
2022-08-17T07:41:53.425Z,23.24
2022-08-17T07:42:46.598Z,23.27
2022-08-17T07:43:42.963Z,23.32
2022-08-17T07:44:42.555Z,23.39
2022-08-17T07:45:42.770Z,23.45
2022-08-17T07:46:42.572Z,23.49
2022-08-17T07:47:42.751Z,23.47
2022-08-17T07:48:42.571Z,23.50
2022-08-17T07:49:42.487Z,23.52
2022-08-17T07:50:42.489Z,23.53
2022-08-17T07:51:42.495Z,23.55
2022-08-17T07:52:50.733Z,23.58
2022-08-17T07:53:42.503Z,23.62
2022-08-17T07:54:42.635Z,23.65
2022-08-17T07:55:42.531Z,23.68
2022-08-17T07:56:42.447Z,23.71
2022-08-17T07:57:42.485Z,23.72
2022-08-17T07:58:42.407Z,23.72
2022-08-17T07:59:43.281Z,23.79
2022-08-17T08:00:42.402Z,23.82
2022-08-17T08:01:42.555Z,23.85
2022-08-17T08:02:42.494Z,23.89
2022-08-17T08:03:42.448Z,23.94
2022-08-17T08:04:59.755Z,23.98
2022-08-17T08:05:50.420Z,24.02
2022-08-17T08:06:42.373Z,24.07
2022-08-17T08:07:42.295Z,24.14
2022-08-17T08:08:42.489Z,24.20
2022-08-17T08:09:42.296Z,24.24
2022-08-17T08:10:42.806Z,24.32
2022-08-17T08:11:44.363Z,24.39
2022-08-17T08:12:42.562Z,24.45
2022-08-17T08:13:42.866Z,24.50
2022-08-17T08:14:42.397Z,24.54
2022-08-17T08:15:45.217Z,24.60
2022-08-17T08:16:42.409Z,24.64
2022-08-17T08:17:42.250Z,24.69
2022-08-17T08:18:55.842Z,24.69
2022-08-17T08:19:42.158Z,24.73
2022-08-17T08:20:52.932Z,24.71
2022-08-17T08:21:42.323Z,24.71
2022-08-17T08:22:42.243Z,24.71
2022-08-17T08:23:42.678Z,24.69
2022-08-17T08:24:42.137Z,24.69
2022-08-17T08:25:42.168Z,24.71
2022-08-17T08:26:42.133Z,24.71
2022-08-17T08:27:42.128Z,24.69
2022-08-17T08:28:42.207Z,24.69
2022-08-17T08:29:42.290Z,24.68
2022-08-17T08:30:42.199Z,24.69
2022-08-17T08:31:42.556Z,24.67
2022-08-17T08:32:42.091Z,24.64
2022-08-17T08:33:42.204Z,24.64
2022-08-17T08:34:45.434Z,24.67
2022-08-17T08:35:42.178Z,24.67
2022-08-17T08:37:14.974Z,24.68
2022-08-17T08:37:50.950Z,24.64
2022-08-17T08:38:42.255Z,24.61
2022-08-17T08:39:42.217Z,24.53
2022-08-17T08:40:42.275Z,24.53
2022-08-17T08:41:42.233Z,24.52
2022-08-17T08:42:42.114Z,24.50
2022-08-17T08:43:42.163Z,24.52
2022-08-17T08:45:00.801Z,24.52
2022-08-17T08:45:42.033Z,24.53
2022-08-17T08:46:41.965Z,24.54
2022-08-17T08:47:42.235Z,24.53
2022-08-17T08:48:53.899Z,24.57
2022-08-17T08:50:41.939Z,24.68
2022-08-17T08:51:41.913Z,24.71
2022-08-17T08:52:42.108Z,24.77
2022-08-17T08:53:41.889Z,24.82
2022-08-17T08:54:41.886Z,24.87
2022-08-17T08:55:42.309Z,24.92
2022-08-17T08:56:58.954Z,24.98
2022-08-17T08:57:41.931Z,25.02
2022-08-17T08:58:42.755Z,25.09
2022-08-17T08:59:44.313Z,25.09
2022-08-17T09:00:41.971Z,25.12
2022-08-17T09:01:41.847Z,25.12
2022-08-17T09:02:41.802Z,25.13
2022-08-17T09:03:52.266Z,25.09
2022-08-17T09:05:10.565Z,25.06
2022-08-17T09:05:41.795Z,25.06
2022-08-17T09:06:41.746Z,25.02
2022-08-17T09:07:41.719Z,25.01
2022-08-17T09:08:41.799Z,24.98
2022-08-17T09:09:41.728Z,24.97
2022-08-17T09:10:41.797Z,24.94
2022-08-17T09:12:02.163Z,24.90
2022-08-17T09:12:41.738Z,24.87
2022-08-17T09:13:41.693Z,24.83
2022-08-17T09:14:45.431Z,24.82
2022-08-17T09:15:41.694Z,24.82
2022-08-17T09:16:42.063Z,24.76
2022-08-17T09:17:41.918Z,24.64
2022-08-17T09:19:00.458Z,24.60
2022-08-17T09:19:41.617Z,24.57
2022-08-17T09:20:44.288Z,24.56
2022-08-17T09:21:48.594Z,24.54
2022-08-17T09:22:41.660Z,24.54
2022-08-17T09:23:41.650Z,24.56
2022-08-17T09:24:41.614Z,24.53
2022-08-17T09:25:41.662Z,24.53
2022-08-17T09:26:41.574Z,24.53
2022-08-17T09:27:41.585Z,24.49
2022-08-17T09:28:41.664Z,24.50
2022-08-17T09:29:41.575Z,24.49
2022-08-17T09:30:41.537Z,24.49
2022-08-17T09:31:47.049Z,24.47
2022-08-17T09:32:41.542Z,24.45
2022-08-17T09:33:41.607Z,24.47
2022-08-17T09:34:43.576Z,24.47
2022-08-17T09:35:41.680Z,24.49
2022-08-17T09:36:41.525Z,24.49
2022-08-17T09:37:41.524Z,24.50
2022-08-17T09:38:41.457Z,24.52
2022-08-17T09:39:41.783Z,24.56
2022-08-17T09:40:41.649Z,24.56
2022-08-17T09:41:49.255Z,24.57
2022-08-17T09:42:41.457Z,24.60
2022-08-17T09:43:41.500Z,24.61
2022-08-17T09:44:41.541Z,24.64
2022-08-17T09:45:41.415Z,24.64
2022-08-17T09:46:41.413Z,24.64
2022-08-17T09:47:41.495Z,24.63
2022-08-17T09:48:41.447Z,24.61
2022-08-17T09:49:41.414Z,24.61
2022-08-17T09:51:05.299Z,24.60
2022-08-17T09:51:41.414Z,24.60
2022-08-17T09:52:41.533Z,24.59
2022-08-17T09:53:41.422Z,24.57
2022-08-17T09:54:41.414Z,24.57
2022-08-17T09:55:41.293Z,24.54
2022-08-17T09:56:46.186Z,24.56
2022-08-17T09:57:41.455Z,24.53
2022-08-17T09:58:41.466Z,24.52
2022-08-17T09:59:41.896Z,24.47
2022-08-17T10:00:41.454Z,24.49
2022-08-17T10:01:41.336Z,24.45
2022-08-17T10:02:41.284Z,24.47
2022-08-17T10:03:41.233Z,24.44
2022-08-17T10:04:41.259Z,24.42
2022-08-17T10:05:41.271Z,24.38
2022-08-17T10:06:41.465Z,24.38
2022-08-17T10:07:41.347Z,24.38
2022-08-17T10:08:41.174Z,24.38
2022-08-17T10:09:41.256Z,24.37
2022-08-17T10:10:41.873Z,24.37
2022-08-17T10:11:45.551Z,24.35
2022-08-17T10:12:45.168Z,24.37
2022-08-17T10:13:41.117Z,24.39
2022-08-17T10:14:44.531Z,24.39
2022-08-17T10:15:42.658Z,24.39
2022-08-17T10:16:41.306Z,24.41
2022-08-17T10:17:41.341Z,24.42
2022-08-17T10:18:41.341Z,24.44
2022-08-17T10:19:44.088Z,24.41
2022-08-17T10:20:41.143Z,24.35
2022-08-17T10:21:41.422Z,24.34
2022-08-17T10:22:41.070Z,24.32
2022-08-17T10:23:41.040Z,24.32
2022-08-17T10:24:41.051Z,24.32
2022-08-17T10:25:56.486Z,24.35
2022-08-17T10:26:46.263Z,24.31
2022-08-17T10:27:40.989Z,24.27
2022-08-17T10:28:41.012Z,24.24
2022-08-17T10:29:49.644Z,24.23
2022-08-17T10:30:41.033Z,24.20
2022-08-17T10:31:41.034Z,24.20
2022-08-17T10:32:40.906Z,24.19
2022-08-17T10:33:40.976Z,24.16
2022-08-17T10:34:41.616Z,24.16
2022-08-17T10:35:41.118Z,24.14
2022-08-17T10:36:41.132Z,24.08
2022-08-17T10:37:41.140Z,24.05
2022-08-17T10:38:41.000Z,24.01
2022-08-17T10:39:51.892Z,23.95
2022-08-17T10:40:41.136Z,23.94
2022-08-17T10:41:41.113Z,23.89
2022-08-17T10:42:41.005Z,23.86
2022-08-17T10:43:40.904Z,23.82
2022-08-17T10:44:41.537Z,23.80
2022-08-17T10:45:40.993Z,23.79
2022-08-17T10:46:40.933Z,23.77
2022-08-17T10:47:54.940Z,23.75
2022-08-17T10:48:40.862Z,23.72
2022-08-17T10:49:40.855Z,23.72
2022-08-17T10:50:40.829Z,23.71
2022-08-17T10:51:40.834Z,23.72
2022-08-17T10:52:40.779Z,23.70
2022-08-17T10:53:40.892Z,23.70
2022-08-17T10:54:41.040Z,23.71
2022-08-17T10:55:40.742Z,23.71
2022-08-17T10:56:40.719Z,23.70
2022-08-17T10:57:40.746Z,23.65
2022-08-17T10:58:40.734Z,23.62
2022-08-17T10:59:40.815Z,23.60
2022-08-17T11:00:40.696Z,23.55
2022-08-17T11:01:40.691Z,23.49
2022-08-17T11:02:40.623Z,23.46
2022-08-17T11:03:40.630Z,23.42
2022-08-17T11:04:40.645Z,23.40
2022-08-17T11:05:43.691Z,23.38
2022-08-17T11:06:40.584Z,23.35
2022-08-17T11:07:40.602Z,23.34
2022-08-17T11:08:40.792Z,23.31
2022-08-17T11:09:40.601Z,23.26
2022-08-17T11:10:40.633Z,23.23
2022-08-17T11:11:40.587Z,23.20
2022-08-17T11:12:42.249Z,23.17
2022-08-17T11:13:40.594Z,23.15
2022-08-17T11:14:40.508Z,23.12
2022-08-17T11:15:40.553Z,23.09
2022-08-17T11:16:40.584Z,23.07
2022-08-17T11:17:40.640Z,23.07
2022-08-17T11:18:40.732Z,23.05
2022-08-17T11:19:40.515Z,23.04
2022-08-17T11:20:40.550Z,23.04
2022-08-17T11:21:40.543Z,23.04
2022-08-17T11:22:40.546Z,23.02
2022-08-17T11:23:40.542Z,22.99
2022-08-17T11:24:40.458Z,22.99
2022-08-17T11:25:40.470Z,22.96
2022-08-17T11:26:40.533Z,22.93
2022-08-17T11:27:40.424Z,22.92
2022-08-17T11:28:40.427Z,22.87
2022-08-17T11:29:40.465Z,22.86
2022-08-17T11:30:40.503Z,22.87
2022-08-17T11:31:40.404Z,22.87
2022-08-17T11:32:47.533Z,22.86
2022-08-17T11:33:40.421Z,22.87
2022-08-17T11:34:40.354Z,22.87
2022-08-17T11:35:40.386Z,22.86
2022-08-17T11:36:40.533Z,22.86
2022-08-17T11:37:40.381Z,22.87
2022-08-17T11:38:40.348Z,22.87
2022-08-17T11:39:40.363Z,22.90
2022-08-17T11:40:40.373Z,22.92
2022-08-17T11:41:40.426Z,22.90
2022-08-17T11:42:40.338Z,22.89
2022-08-17T11:43:42.805Z,22.92
2022-08-17T11:44:40.300Z,22.93
2022-08-17T11:45:40.459Z,22.94
2022-08-17T11:46:40.300Z,22.96
2022-08-17T11:47:40.366Z,22.97
2022-08-17T11:48:40.232Z,22.99
2022-08-17T11:49:40.419Z,22.99
2022-08-17T11:50:40.299Z,23.04
2022-08-17T11:51:40.241Z,23.05
2022-08-17T11:52:40.264Z,23.11
2022-08-17T11:53:40.367Z,23.15
2022-08-17T11:54:40.342Z,23.19
2022-08-17T11:55:44.457Z,23.23
2022-08-17T11:56:40.146Z,23.29
2022-08-17T11:57:40.227Z,23.32
2022-08-17T11:58:40.421Z,23.35
2022-08-17T11:59:40.181Z,23.40
2022-08-17T12:00:40.270Z,23.46
2022-08-17T12:01:40.264Z,23.52
2022-08-17T12:02:42.416Z,23.61
2022-08-17T12:03:40.150Z,23.70
2022-08-17T12:04:40.318Z,23.80
2022-08-17T12:05:40.272Z,23.90
2022-08-17T12:06:40.307Z,24.00
2022-08-17T12:07:40.059Z,24.12
2022-08-17T12:08:40.019Z,24.26
2022-08-17T12:09:40.183Z,24.49
2022-08-17T12:10:40.105Z,24.63
2022-08-17T12:12:01.687Z,24.73
2022-08-17T12:12:40.301Z,24.87
2022-08-17T12:13:40.124Z,24.94
2022-08-17T12:15:08.105Z,25.05
2022-08-17T12:15:40.117Z,25.12
2022-08-17T12:16:40.221Z,25.20
2022-08-17T12:17:42.761Z,25.31
2022-08-17T12:18:40.051Z,25.39
2022-08-17T12:19:40.140Z,25.46
2022-08-17T12:20:40.147Z,25.44
2022-08-17T12:21:39.988Z,25.43
2022-08-17T12:22:39.910Z,25.43
2022-08-17T12:23:39.987Z,25.39
2022-08-17T12:24:39.906Z,25.34
2022-08-17T12:25:40.178Z,25.30
2022-08-17T12:26:39.821Z,25.31
2022-08-17T12:28:04.140Z,25.31
2022-08-17T12:28:39.852Z,25.31
2022-08-17T12:29:39.979Z,25.35
2022-08-17T12:30:39.821Z,25.37
2022-08-17T12:31:39.866Z,25.34
2022-08-17T12:32:39.837Z,25.32
2022-08-17T12:33:39.795Z,25.34
2022-08-17T12:34:39.895Z,25.35
2022-08-17T12:35:39.996Z,25.38
2022-08-17T12:36:39.789Z,25.39
2022-08-17T12:37:39.748Z,25.39
2022-08-17T12:38:39.984Z,25.42
2022-08-17T12:39:39.988Z,25.31
2022-08-17T12:40:39.736Z,25.27
2022-08-17T12:41:39.798Z,25.24
2022-08-17T12:42:39.677Z,25.17
2022-08-17T12:43:39.678Z,25.17
2022-08-17T12:44:42.574Z,25.12
2022-08-17T12:45:39.686Z,25.15
2022-08-17T12:46:39.654Z,25.12
2022-08-17T12:47:39.677Z,25.10
2022-08-17T12:48:39.844Z,25.07
2022-08-17T12:49:39.677Z,25.12
2022-08-17T12:50:39.848Z,25.15
2022-08-17T12:51:39.679Z,25.15
2022-08-17T12:52:39.631Z,25.19
2022-08-17T12:53:39.836Z,25.15